Time;durP1;ratioP1;P1;durP2;ratioP2;P2;SDS_P1;SDS_P2;PMS_P1;PMS_P2;Temp;Humidity;BMP_temperature;BMP_pressure;BME280_temperature;BME280_humidity;BME280_pressure;Samples;Min_cycle;Max_cycle;Signal;HPM_P1;HPM_P2
2022/12/11 00:02:10;;;;;;;20.50;10.88;;;15.50;61.70;;;;;;6181185;23;45288;-69
2022/12/11 00:04:36;;;;;;;20.42;10.13;;;15.50;61.50;;;;;;6181366;23;45353;-69
2022/12/11 00:07:03;;;;;;;20.50;10.55;;;15.50;62.30;;;;;;6182898;23;45257;-70
2022/12/11 00:09:31;;;;;;;20.30;10.45;;;15.50;62.00;;;;;;6182677;23;45457;-69
2022/12/11 00:11:57;;;;;;;18.83;10.68;;;15.50;61.90;;;;;;6182322;23;45460;-69
2022/12/11 00:14:24;;;;;;;22.40;10.70;;;15.50;61.60;;;;;;6181229;23;45292;-70
2022/12/11 00:16:52;;;;;;;19.83;10.25;;;15.50;61.70;;;;;;6182104;23;45322;-69
2022/12/11 00:19:19;;;;;;;23.40;10.90;;;15.60;61.70;;;;;;6183534;23;45548;-69
2022/12/11 00:21:46;;;;;;;22.38;10.80;;;15.50;60.90;;;;;;6182029;23;46385;-70
2022/12/11 00:24:13;;;;;;;22.23;10.70;;;15.60;60.70;;;;;;6182518;23;45530;-69
2022/12/11 00:26:40;;;;;;;21.30;10.88;;;15.60;60.80;;;;;;6183806;23;45348;-68
2022/12/11 00:29:07;;;;;;;19.17;10.07;;;15.50;60.50;;;;;;6183533;23;45201;-69
2022/12/11 00:31:34;;;;;;;21.13;11.23;;;15.50;60.60;;;;;;6182310;23;47500;-70
2022/12/11 00:34:03;;;;;;;20.08;10.40;;;15.50;60.30;;;;;;6181318;23;45318;-69
2022/12/11 00:36:29;;;;;;;21.08;10.93;;;15.60;60.50;;;;;;6182829;23;45332;-69
2022/12/11 00:38:56;;;;;;;18.90;10.13;;;15.50;60.00;;;;;;6182191;23;45516;-69
2022/12/11 00:41:23;;;;;;;21.98;10.85;;;15.50;59.30;;;;;;6182381;23;46457;-69
2022/12/11 00:43:50;;;;;;;20.48;10.75;;;15.50;58.80;;;;;;6181498;23;45161;-70
2022/12/11 00:46:17;;;;;;;18.35;9.80;;;15.40;58.50;;;;;;6180376;23;45336;-69
2022/12/11 00:48:45;;;;;;;19.33;10.20;;;15.40;58.10;;;;;;6183018;23;45286;-69
2022/12/11 00:51:13;;;;;;;19.25;10.23;;;15.40;57.80;;;;;;6181637;23;46554;-69
2022/12/11 00:53:39;;;;;;;18.25;9.80;;;15.40;57.70;;;;;;6182114;23;45282;-69
2022/12/11 00:56:11;;;;;;;19.17;9.35;;;15.40;57.70;;;;;;6182129;23;45301;-70
2022/12/11 00:58:38;;;;;;;20.83;9.55;;;15.40;59.10;;;;;;6182929;23;45201;-69
2022/12/11 01:01:07;;;;;;;19.60;9.88;;;15.40;58.90;;;;;;6182019;23;48004;-70
2022/12/11 01:03:34;;;;;;;18.33;9.90;;;15.40;59.50;;;;;;6182141;23;45459;-69
2022/12/11 01:06:01;;;;;;;17.08;9.18;;;15.40;59.60;;;;;;6182095;23;45401;-70
2022/12/11 01:08:29;;;;;;;15.65;9.40;;;15.40;59.40;;;;;;6182396;23;45381;-69
2022/12/11 01:11:01;;;;;;;16.55;8.77;;;15.50;60.10;;;;;;6182736;23;47175;-69
2022/12/11 01:13:28;;;;;;;17.20;8.68;;;15.50;59.50;;;;;;6181480;23;45276;-70
2022/12/11 01:15:54;;;;;;;17.80;9.02;;;15.50;58.50;;;;;;6182443;23;45289;-70
2022/12/11 01:18:21;;;;;;;18.30;9.40;;;15.50;58.40;;;;;;6181522;23;45678;-70
2022/12/11 01:20:48;;;;;;;18.20;9.45;;;15.50;58.20;;;;;;6182136;23;46919;-69
2022/12/11 01:23:15;;;;;;;17.17;8.82;;;15.60;59.60;;;;;;6181607;23;45311;-69
2022/12/11 01:25:43;;;;;;;16.73;8.30;;;15.50;58.40;;;;;;6182319;23;45339;-70
2022/12/11 01:28:11;;;;;;;20.10;9.48;;;15.50;58.60;;;;;;6182505;23;45375;-70
2022/12/11 01:30:37;;;;;;;17.60;9.05;;;15.50;58.50;;;;;;6181754;23;46977;-70
2022/12/11 01:33:04;;;;;;;14.98;8.38;;;15.50;58.50;;;;;;6181615;23;45238;-70
2022/12/11 01:35:32;;;;;;;17.05;8.38;;;15.50;58.40;;;;;;6182185;23;45512;-70
2022/12/11 01:37:59;;;;;;;17.52;9.10;;;15.50;58.80;;;;;;6182488;22;45262;-70
2022/12/11 01:40:25;;;;;;;15.95;8.35;;;15.50;58.80;;;;;;6181858;23;45450;-69
2022/12/11 01:42:54;;;;;;;17.45;8.43;;;15.50;58.70;;;;;;6181542;23;45317;-70
2022/12/11 01:45:26;;;;;;;18.50;9.05;;;15.50;59.00;;;;;;6182453;23;45394;-69
2022/12/11 01:47:57;;;;;;;16.38;8.43;;;15.50;58.90;;;;;;6180226;23;45503;-70
2022/12/11 01:50:25;;;;;;;15.38;8.32;;;15.50;59.50;;;;;;6182227;23;45313;-69
2022/12/11 01:52:52;;;;;;;18.60;8.80;;;15.60;60.00;;;;;;6180217;23;46149;-70
2022/12/11 01:55:21;;;;;;;16.55;8.25;;;15.50;60.20;;;;;;6181345;23;45520;-70
2022/12/11 01:57:50;;;;;;;16.75;8.93;;;15.50;59.80;;;;;;6183495;23;45376;-69
2022/12/11 02:00:19;;;;;;;16.55;8.55;;;15.60;61.10;;;;;;6181000;23;47928;-69
2022/12/11 02:02:46;;;;;;;16.98;8.88;;;15.60;60.10;;;;;;6181370;23;45328;-70
2022/12/11 02:05:14;;;;;;;16.00;8.82;;;15.60;60.20;;;;;;6180571;23;45379;-70
2022/12/11 02:07:45;;;;;;;17.95;8.63;;;15.60;60.00;;;;;;6182021;23;45415;-69
2022/12/11 02:10:12;;;;;;;17.17;8.70;;;15.60;59.30;;;;;;6182452;23;46515;-70
2022/12/11 02:12:49;;;;;;;18.55;9.07;;;15.60;59.60;;;;;;6182987;23;45261;-69
2022/12/11 02:15:26;;;;;;;17.45;9.68;;;15.60;59.40;;;;;;6181969;23;45213;-71
2022/12/11 02:18:02;;;;;;;14.98;8.18;;;15.60;59.30;;;;;;6183010;23;45222;-70
2022/12/11 02:20:33;;;;;;;17.75;8.38;;;15.60;59.40;;;;;;6182718;23;46711;-70
2022/12/11 02:23:24;;;;;;;17.02;8.48;;;15.60;59.20;;;;;;6182056;23;45377;-71
2022/12/11 02:25:57;;;;;;;14.90;8.00;;;15.60;59.10;;;;;;6181751;23;45248;-71
2022/12/11 02:28:31;;;;;;;16.67;8.05;;;15.60;58.90;;;;;;6182889;23;45299;-70
2022/12/11 02:31:04;;;;;;;15.93;8.50;;;15.60;59.40;;;;;;6182796;23;46377;-70
2022/12/11 02:33:37;;;;;;;14.15;7.70;;;15.50;59.10;;;;;;6181987;23;45842;-70
2022/12/11 02:36:06;;;;;;;14.90;8.35;;;15.50;59.30;;;;;;6182343;23;45337;-70
2022/12/11 02:38:37;;;;;;;16.75;8.55;;;15.50;59.30;;;;;;6182964;23;45396;-70
2022/12/11 02:41:07;;;;;;;15.48;8.73;;;15.60;59.50;;;;;;6181870;23;46287;-69
2022/12/11 02:43:36;;;;;;;17.00;8.88;;;15.50;60.00;;;;;;6181437;23;45652;-70
2022/12/11 02:46:06;;;;;;;16.80;8.13;;;15.60;59.80;;;;;;6181195;23;45286;-70
2022/12/11 02:48:34;;;;;;;17.20;8.75;;;15.60;60.00;;;;;;6181252;23;45184;-70
2022/12/11 02:51:03;;;;;;;14.48;7.78;;;15.60;60.10;;;;;;6181105;23;45235;-70
2022/12/11 02:53:32;;;;;;;16.27;8.30;;;15.60;60.10;;;;;;6181666;23;45602;-70
2022/12/11 02:56:06;;;;;;;14.80;8.57;;;15.60;60.10;;;;;;6182923;23;45364;-70
2022/12/11 02:58:37;;;;;;;16.50;8.75;;;15.60;60.00;;;;;;6183061;23;45328;-70
2022/12/11 03:01:04;;;;;;;14.77;7.75;;;15.60;59.70;;;;;;6182830;23;47935;-69
2022/12/11 03:03:31;;;;;;;15.63;8.45;;;15.60;59.20;;;;;;6180052;23;45338;-69
2022/12/11 03:05:58;;;;;;;14.63;7.68;;;15.60;59.20;;;;;;6180369;23;45309;-70
2022/12/11 03:08:25;;;;;;;13.90;7.43;;;15.60;59.10;;;;;;6182473;23;45245;-70
2022/12/11 03:10:52;;;;;;;16.02;7.95;;;15.60;59.20;;;;;;6182724;23;46472;-70
2022/12/11 03:13:21;;;;;;;13.45;7.32;;;15.60;59.30;;;;;;6182096;23;45305;-69
2022/12/11 03:16:01;;;;;;;13.80;7.45;;;15.60;59.20;;;;;;6183216;23;45325;-70
2022/12/11 03:18:35;;;;;;;12.93;7.40;;;15.60;59.10;;;;;;6183239;23;45240;-69
2022/12/11 03:21:06;;;;;;;16.15;8.38;;;15.60;59.10;;;;;;6181871;23;46531;-70
2022/12/11 03:23:39;;;;;;;13.63;7.70;;;15.60;58.10;;;;;;6181990;23;45303;-70
2022/12/11 03:26:10;;;;;;;15.38;8.00;;;15.50;57.40;;;;;;6182189;23;45272;-69
2022/12/11 03:28:44;;;;;;;15.07;8.60;;;15.50;57.00;;;;;;6183349;23;45406;-69
2022/12/11 03:31:17;;;;;;;14.95;7.40;;;15.50;56.60;;;;;;6182490;23;46960;-70
2022/12/11 03:33:48;;;;;;;14.38;7.95;;;15.50;56.60;;;;;;6182042;23;45315;-70
2022/12/11 03:36:30;;;;;;;15.35;8.25;;;15.50;56.30;;;;;;6182737;23;45379;-69
2022/12/11 03:39:00;;;;;;;14.82;7.90;;;15.50;57.40;;;;;;6181502;23;45311;-69
2022/12/11 03:41:31;;;;;;;14.77;8.07;;;15.50;57.30;;;;;;6182240;23;45445;-69
2022/12/11 03:43:59;;;;;;;14.32;7.80;;;15.50;58.00;;;;;;6181132;23;45305;-70
2022/12/11 03:46:30;;;;;;;14.40;7.85;;;15.50;57.70;;;;;;6182388;23;45308;-70
2022/12/11 03:49:01;;;;;;;14.65;7.63;;;15.50;57.40;;;;;;6182375;23;45334;-69
2022/12/11 03:51:29;;;;;;;16.90;7.65;;;15.50;57.40;;;;;;6182394;23;45205;-70
2022/12/11 03:53:56;;;;;;;14.70;7.90;;;15.50;57.20;;;;;;6180540;23;45367;-70
2022/12/11 03:56:25;;;;;;;15.90;8.02;;;15.40;55.40;;;;;;6182100;23;45328;-70
2022/12/11 03:58:52;;;;;;;16.65;8.13;;;15.40;54.80;;;;;;6182527;23;45236;-70
2022/12/11 04:01:19;;;;;;;14.45;7.90;;;15.50;54.50;;;;;;6181536;23;45398;-69
2022/12/11 04:03:47;;;;;;;17.45;8.52;;;15.40;54.20;;;;;;6178740;23;45229;-69
2022/12/11 04:06:14;;;;;;;15.23;8.25;;;15.50;54.40;;;;;;6180277;23;45301;-70
2022/12/11 04:08:41;;;;;;;15.68;8.13;;;15.50;54.20;;;;;;6183024;23;45359;-70
2022/12/11 04:16:32;;;;;;;14.20;8.05;;;15.40;53.60;;;;;;6181088;23;45343;-70
2022/12/11 04:24:29;;;;;;;13.00;7.70;;;15.40;53.50;;;;;;6180672;23;45324;-71
2022/12/11 04:26:56;;;;;;;17.00;8.65;;;15.40;53.70;;;;;;6182093;23;45249;-70
2022/12/11 04:29:23;;;;;;;14.32;8.07;;;15.40;53.70;;;;;;6182093;23;45296;-70
2022/12/11 04:31:50;;;;;;;14.43;7.82;;;15.40;54.40;;;;;;6181752;23;47892;-70
2022/12/11 04:34:18;;;;;;;14.65;7.45;;;15.40;54.60;;;;;;6181652;23;45252;-70
2022/12/11 04:36:45;;;;;;;15.15;7.68;;;15.50;55.20;;;;;;6181217;23;45216;-70
2022/12/11 04:39:12;;;;;;;14.98;7.90;;;15.50;54.70;;;;;;6180479;23;45202;-69
2022/12/11 04:41:40;;;;;;;13.27;7.53;;;15.40;54.80;;;;;;6179587;23;47079;-70
2022/12/11 04:44:07;;;;;;;14.32;7.55;;;15.40;55.00;;;;;;6179452;23;45385;-70
2022/12/11 04:46:34;;;;;;;14.05;7.70;;;15.40;54.30;;;;;;6179868;23;45424;-71
2022/12/11 04:49:01;;;;;;;12.82;7.32;;;15.40;52.80;;;;;;6181181;23;45272;-70
2022/12/11 04:51:29;;;;;;;16.08;8.30;;;15.40;52.60;;;;;;6182003;23;45492;-70
2022/12/11 04:53:57;;;;;;;13.57;7.43;;;15.40;52.60;;;;;;6180585;23;45308;-70
2022/12/11 04:56:24;;;;;;;14.90;7.25;;;15.40;52.30;;;;;;6181842;23;45256;-70
2022/12/11 04:58:51;;;;;;;12.18;6.93;;;15.40;52.30;;;;;;6181652;23;45526;-69
2022/12/11 05:01:20;;;;;;;12.38;6.78;;;15.40;52.30;;;;;;6181541;23;47239;-70
2022/12/11 05:03:47;;;;;;;11.90;7.07;;;15.40;52.20;;;;;;6177962;23;45348;-70
2022/12/11 05:06:14;;;;;;;11.88;7.22;;;15.40;52.40;;;;;;6180291;23;45230;-70
2022/12/11 05:08:44;;;;;;;12.93;7.18;;;15.40;52.30;;;;;;6183857;23;45344;-70
2022/12/11 05:11:13;;;;;;;14.13;6.80;;;15.40;52.20;;;;;;6181176;23;45305;-70
2022/12/11 05:13:40;;;;;;;12.32;7.03;;;15.40;52.20;;;;;;6181227;23;45158;-69
2022/12/11 05:16:10;;;;;;;10.85;6.32;;;15.40;52.30;;;;;;6181502;23;45281;-70
2022/12/11 05:18:37;;;;;;;10.65;6.07;;;15.40;56.00;;;;;;6182302;23;45455;-70
2022/12/11 05:21:06;;;;;;;10.57;6.45;;;15.40;54.60;;;;;;6181019;23;46554;-70
2022/12/11 05:23:34;;;;;;;12.05;6.93;;;15.40;54.10;;;;;;6181118;23;45284;-70
2022/12/11 05:26:04;;;;;;;10.48;5.97;;;15.40;53.50;;;;;;6181767;23;45403;-71
2022/12/11 05:28:32;;;;;;;14.55;7.03;;;15.40;53.70;;;;;;6181455;23;45446;-70
2022/12/11 05:31:01;;;;;;;10.82;6.45;;;15.40;54.00;;;;;;6181343;23;47989;-70
2022/12/11 05:33:29;;;;;;;12.77;6.70;;;15.40;53.70;;;;;;6180228;23;45404;-70
2022/12/11 05:35:56;;;;;;;13.25;6.90;;;15.40;53.90;;;;;;6181497;23;45310;-70
2022/12/11 05:38:23;;;;;;;13.10;6.88;;;15.40;53.80;;;;;;6111830;23;1092329;-70
2022/12/11 05:40:56;;;;;;;11.38;6.30;;;15.40;52.60;;;;;;6180595;23;45209;-70
2022/12/11 05:43:25;;;;;;;12.48;6.57;;;15.40;51.80;;;;;;6182545;23;45252;-70
2022/12/11 05:45:51;;;;;;;11.55;6.53;;;15.40;51.80;;;;;;6182185;23;45477;-70
2022/12/11 05:48:18;;;;;;;11.27;6.78;;;15.40;51.50;;;;;;6183583;23;45253;-69
2022/12/11 05:50:55;;;;;;;12.73;6.97;;;15.40;51.50;;;;;;6182521;23;46424;-70
2022/12/11 05:53:22;;;;;;;13.77;6.88;;;15.40;51.60;;;;;;6182811;23;45396;-70
2022/12/11 05:55:49;;;;;;;12.27;6.78;;;15.40;51.30;;;;;;6182466;23;45324;-70
2022/12/11 05:58:16;;;;;;;13.07;6.78;;;15.40;51.20;;;;;;6183860;23;45606;-70
2022/12/11 06:00:44;;;;;;;10.95;6.97;;;15.40;51.10;;;;;;6182462;23;46808;-70
2022/12/11 06:03:11;;;;;;;12.95;7.10;;;15.40;51.10;;;;;;6180851;23;45210;-70
2022/12/11 06:05:38;;;;;;;12.27;6.90;;;15.40;51.20;;;;;;6183843;23;45209;-70
2022/12/11 06:08:05;;;;;;;11.57;6.47;;;15.40;51.10;;;;;;6181552;23;45199;-71
2022/12/11 06:10:32;;;;;;;11.48;5.93;;;15.40;51.10;;;;;;6183027;23;46318;-71
2022/12/11 06:12:59;;;;;;;12.00;6.20;;;15.40;51.10;;;;;;6182967;23;45308;-70
2022/12/11 06:15:26;;;;;;;11.55;5.93;;;15.40;51.00;;;;;;6182453;23;45239;-70
2022/12/11 06:17:54;;;;;;;10.32;6.32;;;15.30;51.30;;;;;;6182835;23;45515;-70
2022/12/11 06:20:20;;;;;;;12.13;6.78;;;15.40;51.90;;;;;;6181666;23;47929;-70
2022/12/11 06:22:47;;;;;;;11.95;6.53;;;15.40;51.90;;;;;;6183152;23;45396;-71
2022/12/11 06:25:14;;;;;;;11.63;6.45;;;15.40;52.00;;;;;;6181690;23;45427;-70
2022/12/11 06:27:41;;;;;;;11.70;5.90;;;15.40;51.90;;;;;;6183608;23;45395;-70
2022/12/11 06:30:10;;;;;;;11.85;6.63;;;15.40;51.90;;;;;;6182016;23;48296;-71
2022/12/11 06:32:37;;;;;;;12.30;6.30;;;15.30;51.10;;;;;;6182924;23;45319;-70
2022/12/11 06:35:06;;;;;;;10.10;5.85;;;15.40;50.10;;;;;;6182389;23;45291;-70
2022/12/11 06:37:34;;;;;;;11.15;6.15;;;15.40;49.70;;;;;;6182156;22;45340;-70
2022/12/11 06:40:01;;;;;;;10.60;5.85;;;15.30;49.60;;;;;;6183322;23;47051;-71
2022/12/11 06:42:29;;;;;;;11.13;5.88;;;15.40;49.70;;;;;;6182532;23;45425;-70
2022/12/11 06:44:58;;;;;;;10.75;6.60;;;15.30;49.60;;;;;;6182213;23;45271;-70
2022/12/11 06:47:26;;;;;;;10.40;5.93;;;15.40;49.70;;;;;;6182653;23;45188;-71
2022/12/11 06:49:53;;;;;;;9.85;6.18;;;15.30;49.60;;;;;;6182762;23;46418;-71
2022/12/11 06:52:21;;;;;;;10.32;5.50;;;15.30;49.60;;;;;;6182971;23;45301;-70
2022/12/11 06:54:49;;;;;;;10.30;5.88;;;15.30;49.60;;;;;;6181994;23;45338;-70
2022/12/11 06:57:16;;;;;;;10.73;5.97;;;15.40;49.70;;;;;;6183218;23;45662;-70
2022/12/11 06:59:43;;;;;;;10.98;5.97;;;15.40;49.70;;;;;;6182387;23;48482;-70
2022/12/11 07:02:13;;;;;;;12.07;5.55;;;15.40;50.10;;;;;;6183318;23;45265;-70
2022/12/11 07:04:40;;;;;;;8.50;5.03;;;15.40;49.70;;;;;;6180008;23;45430;-69
2022/12/11 07:07:06;;;;;;;9.18;5.28;;;15.40;49.70;;;;;;6181688;23;45415;-70
2022/12/11 07:09:36;;;;;;;8.55;4.70;;;15.40;49.70;;;;;;6182624;23;46484;-70
2022/12/11 07:12:03;;;;;;;10.02;5.93;;;15.40;50.90;;;;;;6180428;23;45373;-70
2022/12/11 07:14:30;;;;;;;9.02;5.10;;;15.30;50.20;;;;;;6181122;23;45303;-70
2022/12/11 07:16:57;;;;;;;8.85;4.90;;;15.40;50.20;;;;;;6181781;23;45383;-70
2022/12/11 07:19:25;;;;;;;9.60;4.60;;;15.40;50.50;;;;;;6182742;23;45590;-70
2022/12/11 07:21:52;;;;;;;8.50;4.22;;;15.40;51.40;;;;;;6182719;23;45674;-70
2022/12/11 07:24:19;;;;;;;9.30;5.00;;;15.40;52.50;;;;;;6181637;23;45301;-70
2022/12/11 07:26:47;;;;;;;9.32;5.13;;;15.40;51.40;;;;;;6183178;23;45271;-70
2022/12/11 07:29:15;;;;;;;8.15;4.50;;;15.40;50.80;;;;;;6182445;23;46629;-68
2022/12/11 07:31:41;;;;;;;8.85;4.72;;;15.40;50.60;;;;;;6182458;23;45241;-71
2022/12/11 07:34:11;;;;;;;10.13;5.05;;;15.40;50.30;;;;;;6180845;23;45274;-70
2022/12/11 07:36:38;;;;;;;8.45;4.60;;;15.40;50.10;;;;;;6182250;23;45331;-70
2022/12/11 07:39:06;;;;;;;10.88;4.60;;;15.30;49.60;;;;;;6180637;23;46292;-70
2022/12/11 07:41:33;;;;;;;8.20;4.65;;;15.40;49.90;;;;;;6181058;23;45228;-70
2022/12/11 07:44:02;;;;;;;7.75;4.38;;;15.30;49.60;;;;;;6181158;23;45465;-70
2022/12/11 07:46:31;;;;;;;7.75;4.45;;;15.30;49.60;;;;;;6181404;23;45403;-70
2022/12/11 07:48:59;;;;;;;10.40;5.32;;;15.30;49.60;;;;;;6181507;23;46565;-70
2022/12/11 07:51:28;;;;;;;8.35;4.53;;;15.30;49.60;;;;;;6180562;23;45617;-71
2022/12/11 07:53:56;;;;;;;8.82;4.60;;;15.30;49.60;;;;;;6181257;23;45327;-70
2022/12/11 07:56:23;;;;;;;5.75;3.83;;;15.30;49.60;;;;;;6182055;23;45493;-70
2022/12/11 07:58:50;;;;;;;9.00;4.70;;;15.30;49.60;;;;;;6182985;23;48239;-70
2022/12/11 08:01:22;;;;;;;6.43;3.83;;;15.30;49.60;;;;;;6181446;23;45293;-70
2022/12/11 08:03:49;;;;;;;5.60;3.80;;;15.30;49.60;;;;;;6179511;23;45290;-70
2022/12/11 08:06:16;;;;;;;6.68;4.05;;;15.30;49.60;;;;;;6179388;23;45415;-70
2022/12/11 08:08:44;;;;;;;8.32;4.85;;;15.30;49.60;;;;;;6181633;23;46388;-70
2022/12/11 08:11:13;;;;;;;7.95;4.38;;;15.30;49.80;;;;;;6181237;23;45336;-70
2022/12/11 08:13:41;;;;;;;7.45;4.00;;;15.30;49.60;;;;;;6181070;23;45253;-70
2022/12/11 08:16:10;;;;;;;6.95;3.85;;;15.30;49.60;;;;;;6179417;23;45670;-70
2022/12/11 08:18:39;;;;;;;7.13;4.03;;;15.30;49.20;;;;;;6181258;23;45376;-70
2022/12/11 08:21:06;;;;;;;5.18;3.25;;;15.30;48.80;;;;;;6181142;23;45367;-70
2022/12/11 08:23:33;;;;;;;7.80;4.28;;;15.30;49.00;;;;;;6181469;23;45351;-71
2022/12/11 08:26:02;;;;;;;5.95;3.50;;;15.30;49.00;;;;;;6183376;23;45199;-70
2022/12/11 08:28:28;;;;;;;5.65;3.83;;;15.30;48.90;;;;;;6182143;23;47142;-70
2022/12/11 08:30:55;;;;;;;6.47;3.90;;;15.30;48.80;;;;;;6182497;23;45286;-71
2022/12/11 08:33:22;;;;;;;7.25;4.18;;;15.30;48.80;;;;;;6180448;23;45397;-70
2022/12/11 08:35:50;;;;;;;6.97;3.70;;;15.30;48.80;;;;;;6181354;23;45349;-70
2022/12/11 08:38:17;;;;;;;7.00;3.80;;;15.30;48.70;;;;;;6181184;23;48457;-70
2022/12/11 08:40:44;;;;;;;6.32;3.92;;;15.30;48.70;;;;;;6181883;23;45415;-70
2022/12/11 08:43:10;;;;;;;6.32;3.47;;;15.30;48.60;;;;;;6182558;23;45220;-70
2022/12/11 08:45:38;;;;;;;5.65;3.13;;;15.30;48.50;;;;;;6179959;23;45336;-71
2022/12/11 08:48:05;;;;;;;5.97;3.75;;;15.30;48.60;;;;;;6182483;23;47014;-72
2022/12/11 08:50:32;;;;;;;6.60;4.05;;;15.30;48.70;;;;;;6182312;23;45225;-70
2022/12/11 08:53:00;;;;;;;6.55;3.90;;;15.30;48.40;;;;;;6182431;23;45345;-71
2022/12/11 08:55:27;;;;;;;6.55;3.80;;;15.30;48.00;;;;;;6182420;23;45298;-71
2022/12/11 08:57:54;;;;;;;6.70;3.65;;;15.40;49.20;;;;;;6182934;23;46297;-70
2022/12/11 09:00:21;;;;;;;5.65;3.63;;;15.40;50.20;;;;;;6182865;23;45266;-70
2022/12/11 09:02:48;;;;;;;5.57;2.92;;;15.40;49.70;;;;;;6182224;23;45194;-71
2022/12/11 09:05:15;;;;;;;6.35;3.30;;;15.40;49.00;;;;;;6179835;23;45328;-71
2022/12/11 09:07:41;;;;;;;6.18;3.45;;;15.40;48.80;;;;;;6180978;23;46323;-70
2022/12/11 09:10:10;;;;;;;6.05;3.50;;;15.40;47.80;;;;;;6181893;23;45360;-70
2022/12/11 09:12:37;;;;;;;6.05;3.40;;;15.40;47.60;;;;;;6183544;23;45414;-70
2022/12/11 09:15:05;;;;;;;5.50;3.40;;;15.40;47.80;;;;;;6182043;23;45564;-71
2022/12/11 09:17:33;;;;;;;5.78;3.30;;;15.40;47.70;;;;;;6182750;23;46278;-71
2022/12/11 09:20:00;;;;;;;6.97;3.50;;;15.30;47.50;;;;;;6183059;23;45225;-70
2022/12/11 09:22:27;;;;;;;6.53;4.18;;;15.30;47.60;;;;;;6182394;23;45229;-70
2022/12/11 09:24:54;;;;;;;6.55;3.33;;;15.30;47.70;;;;;;6182565;23;45220;-71
2022/12/11 09:27:22;;;;;;;5.80;3.42;;;15.40;50.40;;;;;;6182142;23;46409;-71
2022/12/11 09:29:50;;;;;;;5.95;3.78;;;15.40;49.70;;;;;;6182415;23;45228;-70
2022/12/11 09:32:16;;;;;;;6.55;3.65;;;15.40;49.00;;;;;;6182094;23;45296;-71
2022/12/11 09:34:44;;;;;;;5.95;3.83;;;15.30;48.50;;;;;;6181227;23;45368;-70
2022/12/11 09:37:10;;;;;;;6.78;3.97;;;15.30;48.50;;;;;;6182461;23;47444;-71
2022/12/11 09:39:38;;;;;;;7.57;4.20;;;15.30;48.30;;;;;;6182442;23;45327;-70
2022/12/11 09:42:13;;;;;;;8.40;4.00;;;15.30;48.40;;;;;;6183544;23;45206;-71
2022/12/11 09:44:44;;;;;;;7.78;4.55;;;15.30;48.00;;;;;;6181725;23;45505;-70
2022/12/11 09:47:23;;;;;;;6.82;4.13;;;15.30;47.80;;;;;;6182260;23;45310;-70
2022/12/11 09:49:55;;;;;;;7.78;3.80;;;15.30;47.80;;;;;;6183188;23;45320;-71
2022/12/11 09:52:28;;;;;;;8.00;4.40;;;15.40;48.00;;;;;;6185459;23;45515;-70
2022/12/11 09:54:59;;;;;;;6.72;4.10;;;15.40;47.60;;;;;;6182216;23;45328;-70
2022/12/11 09:57:35;;;;;;;6.70;3.72;;;15.40;47.50;;;;;;6182723;23;46601;-70
2022/12/11 10:00:19;;;;;;;8.27;4.20;;;15.40;47.60;;;;;;6183011;23;45308;-70
2022/12/11 10:03:11;;;;;;;6.38;4.00;;;15.40;47.00;;;;;;6182953;23;45211;-70
2022/12/11 10:05:47;;;;;;;6.93;4.38;;;15.40;46.80;;;;;;6181353;23;45360;-70
2022/12/11 10:08:19;;;;;;;7.80;4.38;;;15.40;46.80;;;;;;6182573;23;47471;-70
2022/12/11 10:10:56;;;;;;;8.15;4.55;;;15.40;46.70;;;;;;6182177;23;45311;-70
2022/12/11 10:13:29;;;;;;;7.65;4.38;;;15.40;46.70;;;;;;6183525;23;45287;-70
2022/12/11 10:16:03;;;;;;;8.35;4.25;;;15.40;46.60;;;;;;6182255;23;45210;-71
2022/12/11 10:18:32;;;;;;;7.70;4.38;;;15.40;46.70;;;;;;6182680;23;47357;-71
2022/12/11 10:21:02;;;;;;;7.60;4.38;;;15.40;46.70;;;;;;6182629;23;45229;-71
2022/12/11 10:23:34;;;;;;;7.72;4.20;;;15.40;46.70;;;;;;6182304;23;45233;-70
2022/12/11 10:26:06;;;;;;;7.05;4.32;;;15.40;46.60;;;;;;6182390;23;45524;-71
2022/12/11 10:28:33;;;;;;;7.65;4.63;;;15.40;46.40;;;;;;6182461;23;46533;-70
2022/12/11 10:31:07;;;;;;;7.50;3.92;;;15.40;46.50;;;;;;6182378;23;45926;-71
2022/12/11 10:33:40;;;;;;;5.05;3.47;;;15.40;46.40;;;;;;6181596;23;45306;-70
2022/12/11 10:36:09;;;;;;;6.53;3.78;;;15.40;46.30;;;;;;6181678;23;45212;-70
2022/12/11 10:38:40;;;;;;;6.95;4.20;;;15.50;46.20;;;;;;6181849;23;45231;-70
2022/12/11 10:41:13;;;;;;;6.95;3.95;;;15.50;46.10;;;;;;6180770;23;45406;-70
2022/12/11 10:43:42;;;;;;;6.15;3.80;;;15.50;46.20;;;;;;6181189;23;45221;-70
2022/12/11 10:46:17;;;;;;;9.48;4.55;;;15.50;46.10;;;;;;6181289;23;45217;-70
2022/12/11 10:48:48;;;;;;;8.45;4.00;;;15.50;46.20;;;;;;6181919;23;46356;-70
2022/12/11 10:51:15;;;;;;;6.43;3.70;;;15.50;46.10;;;;;;6182498;23;45211;-70
2022/12/11 10:53:43;;;;;;;6.20;3.83;;;15.50;46.10;;;;;;6180185;23;45248;-70
2022/12/11 10:56:11;;;;;;;8.27;3.60;;;15.50;47.00;;;;;;6182363;23;45262;-70
2022/12/11 10:58:47;;;;;;;7.38;4.22;;;15.40;45.50;;;;;;6182462;23;45222;-70
2022/12/11 11:01:19;;;;;;;7.25;4.28;;;15.40;45.90;;;;;;6181371;23;45257;-70
2022/12/11 11:03:55;;;;;;;7.10;4.47;;;15.40;46.00;;;;;;6177736;23;45285;-70
2022/12/11 11:06:23;;;;;;;7.68;4.47;;;15.40;45.90;;;;;;6180360;23;45386;-70
2022/12/11 11:08:52;;;;;;;8.18;4.93;;;15.40;45.90;;;;;;6180203;23;47348;-70
2022/12/11 11:11:23;;;;;;;8.88;5.10;;;15.40;46.10;;;;;;6181828;23;45397;-70
2022/12/11 11:13:50;;;;;;;7.32;4.63;;;15.40;46.10;;;;;;6180893;23;45225;-71
2022/12/11 11:16:21;;;;;;;8.30;4.90;;;15.40;46.10;;;;;;6180746;23;45198;-70
2022/12/11 11:18:53;;;;;;;8.45;4.65;;;15.40;46.10;;;;;;6182323;23;45261;-70
2022/12/11 11:21:24;;;;;;;7.90;4.97;;;15.40;46.00;;;;;;6181504;23;45281;-70
2022/12/11 11:23:52;;;;;;;8.65;5.00;;;15.40;47.20;;;;;;6181591;23;45248;-70
2022/12/11 11:26:21;;;;;;;8.90;5.28;;;15.40;45.90;;;;;;6182492;23;45196;-70
2022/12/11 11:28:50;;;;;;;8.57;4.43;;;15.40;45.90;;;;;;6182600;23;47897;-71
2022/12/11 11:31:20;;;;;;;9.13;5.47;;;15.40;48.70;;;;;;6181943;23;45264;-70
2022/12/11 11:33:55;;;;;;;9.27;5.43;;;15.40;47.50;;;;;;6182352;23;45226;-70
2022/12/11 11:36:24;;;;;;;9.70;4.88;;;15.40;47.00;;;;;;6182055;23;45424;-70
2022/12/11 11:39:04;;;;;;;7.47;4.53;;;15.40;46.60;;;;;;6182149;23;48314;-70
2022/12/11 11:41:37;;;;;;;9.38;5.03;;;15.40;46.30;;;;;;6179902;23;45289;-71
2022/12/11 11:44:07;;;;;;;9.30;4.82;;;15.40;46.40;;;;;;6181863;23;45304;-70
2022/12/11 11:46:39;;;;;;;8.10;4.93;;;15.40;46.40;;;;;;6184409;23;45229;-70
2022/12/11 11:49:15;;;;;;;8.23;5.20;;;15.40;45.80;;;;;;6179886;23;45340;-70
2022/12/11 11:51:46;;;;;;;8.02;4.45;;;15.40;45.60;;;;;;6177750;23;45409;-70
2022/12/11 11:54:23;;;;;;;8.93;5.13;;;15.40;45.60;;;;;;6180059;23;45296;-70
2022/12/11 11:56:52;;;;;;;8.90;4.97;;;15.40;45.70;;;;;;6182800;23;45395;-70
2022/12/11 11:59:24;;;;;;;10.75;5.55;;;15.40;45.60;;;;;;6182557;23;47275;-71
2022/12/11 12:01:55;;;;;;;7.22;4.60;;;15.40;45.70;;;;;;6182948;23;45315;-71
2022/12/11 12:04:23;;;;;;;8.65;5.03;;;15.40;45.50;;;;;;6181281;23;45363;-71
2022/12/11 12:07:02;;;;;;;10.23;5.38;;;15.40;45.70;;;;;;6180268;23;45362;-70
2022/12/11 12:09:42;;;;;;;9.75;5.40;;;15.40;45.70;;;;;;6182484;23;46353;-71
2022/12/11 12:12:16;;;;;;;9.20;5.03;;;15.40;45.60;;;;;;6179280;23;45699;-71
2022/12/11 12:14:58;;;;;;;8.73;4.90;;;15.40;45.70;;;;;;6181271;23;45353;-70
2022/12/11 12:17:37;;;;;;;9.55;5.40;;;15.40;45.50;;;;;;6183399;23;45427;-70
2022/12/11 12:20:18;;;;;;;9.05;4.85;;;15.30;45.30;;;;;;6181510;23;45532;-71
2022/12/11 12:23:15;;;;;;;8.35;4.80;;;15.40;45.60;;;;;;6181522;23;45309;-70
2022/12/11 12:25:49;;;;;;;9.50;5.50;;;15.40;45.40;;;;;;6181364;23;45253;-70
2022/12/11 12:28:28;;;;;;;10.00;5.18;;;15.40;45.50;;;;;;6183435;23;45307;-70
2022/12/11 12:31:08;;;;;;;10.43;5.45;;;15.40;45.80;;;;;;6180651;23;45395;-71
2022/12/11 12:33:46;;;;;;;8.98;4.88;;;15.40;45.50;;;;;;6183160;23;45414;-70
2022/12/11 12:36:20;;;;;;;7.95;4.43;;;15.40;45.20;;;;;;6182319;23;45436;-70
2022/12/11 12:38:54;;;;;;;10.38;5.55;;;15.40;45.70;;;;;;6183068;23;45330;-70
2022/12/11 12:41:26;;;;;;;8.98;5.20;;;15.40;44.90;;;;;;6182015;23;45289;-70
2022/12/11 12:44:06;;;;;;;8.63;5.25;;;15.40;44.90;;;;;;6182443;23;45317;-70
2022/12/11 12:46:51;;;;;;;8.88;5.22;;;15.40;45.10;;;;;;6181692;23;45271;-70
2022/12/11 12:49:28;;;;;;;9.52;4.97;;;15.40;45.30;;;;;;6183297;23;45367;-70
2022/12/11 12:51:56;;;;;;;9.63;5.43;;;15.40;45.40;;;;;;6182722;23;46427;-70
2022/12/11 12:54:26;;;;;;;10.05;5.35;;;15.30;45.20;;;;;;6180410;23;45374;-70
2022/12/11 12:56:54;;;;;;;10.80;5.63;;;15.30;45.20;;;;;;6183342;23;45150;-71
2022/12/11 12:59:23;;;;;;;9.57;5.40;;;15.40;45.10;;;;;;6183424;23;45337;-71
2022/12/11 13:01:55;;;;;;;9.63;5.70;;;15.40;45.00;;;;;;6182657;23;46568;-70
2022/12/11 13:04:37;;;;;;;12.05;5.47;;;15.40;45.00;;;;;;6183032;23;45434;-70